Time;durP1;ratioP1;P1;durP2;ratioP2;P2;SDS_P1;SDS_P2;PMS_P1;PMS_P2;Temp;Humidity;BMP_temperature;BMP_pressure;BME280_temperature;BME280_humidity;BME280_pressure;Samples;Min_cycle;Max_cycle;Signal;HPM_P1;HPM_P2
2022/08/27 00:01:48;;;;;;;6.85;1.90;;;;;;;19.62;65.28;101756.09;5070545;28;20029;-52
2022/08/27 00:04:14;;;;;;;9.82;1.90;;;;;;;19.61;66.64;101759.59;5076935;28;20031;-50
2022/08/27 00:06:39;;;;;;;4.75;1.70;;;;;;;19.58;65.93;101762.13;5077889;28;20028;-51
2022/08/27 00:09:05;;;;;;;7.88;1.98;;;;;;;19.56;66.44;101768.22;5072678;28;20047;-50
2022/08/27 00:11:30;;;;;;;6.72;1.92;;;;;;;19.58;65.99;101765.63;5069058;28;20063;-52
2022/08/27 00:13:56;;;;;;;7.03;2.08;;;;;;;19.52;66.11;101757.75;5075171;28;20040;-54
2022/08/27 00:16:22;;;;;;;3.88;2.20;;;;;;;19.48;66.13;101756.88;5069892;28;20036;-54
2022/08/27 00:18:47;;;;;;;5.38;1.90;;;;;;;19.44;66.87;101756.84;5075118;28;20029;-54
2022/08/27 00:21:13;;;;;;;5.00;2.08;;;;;;;19.40;66.65;101755.06;5071905;28;20599;-53
2022/08/27 00:23:39;;;;;;;6.30;2.80;;;;;;;19.38;66.97;101756.81;5067103;28;20525;-52
2022/08/27 00:26:06;;;;;;;6.72;3.20;;;;;;;19.36;67.24;101755.94;5079013;28;20028;-53
2022/08/27 00:28:32;;;;;;;4.75;2.55;;;;;;;19.34;67.35;101752.44;5071786;28;20716;-51
2022/08/27 00:30:58;;;;;;;4.70;2.47;;;;;;;19.29;67.60;101757.59;5073859;28;20057;-51
2022/08/27 00:33:24;;;;;;;6.65;2.60;;;;;;;19.26;67.26;101755.88;5074384;28;20032;-50
2022/08/27 00:35:50;;;;;;;6.70;2.65;;;;;;;19.28;67.46;101756.75;5070054;28;20159;-52
2022/08/27 00:38:16;;;;;;;5.70;2.22;;;;;;;19.26;67.29;101755.88;5068472;28;20065;-47
2022/08/27 00:40:42;;;;;;;5.22;2.08;;;;;;;19.20;67.45;101752.34;5071152;28;20043;-54
2022/08/27 00:43:07;;;;;;;5.63;2.10;;;;;;;19.09;67.68;101749.66;5070695;28;20028;-52
2022/08/27 00:45:38;;;;;;;5.78;2.30;;;;;;;19.14;67.57;101742.75;5072612;28;20033;-51
2022/08/27 00:48:06;;;;;;;5.93;2.47;;;;;;;19.11;68.11;101742.75;5070311;28;20073;-53
2022/08/27 00:50:38;;;;;;;5.20;2.30;;;;;;;19.10;67.73;101748.78;5068966;28;20068;-48
2022/08/27 00:53:14;;;;;;;5.75;2.03;;;;;;;19.08;68.26;101750.53;5073420;28;20066;-53
2022/08/27 00:55:53;;;;;;;6.47;2.20;;;;;;;19.03;68.39;101755.69;5071108;28;20047;-52
2022/08/27 00:58:36;;;;;;;6.05;1.98;;;;;;;19.02;68.51;101758.31;5073878;28;20119;-51
2022/08/27 01:01:04;;;;;;;5.63;2.08;;;;;;;18.95;69.03;101756.53;5072254;28;20051;-53
2022/08/27 01:03:29;;;;;;;5.03;2.30;;;;;;;18.91;69.07;101750.41;5073726;28;20035;-51
2022/08/27 01:05:57;;;;;;;8.35;2.15;;;;;;;18.92;69.18;101756.47;5065343;28;20278;-47
2022/08/27 01:08:28;;;;;;;7.78;2.30;;;;;;;18.89;69.18;101753.88;5066839;28;20118;-50
2022/08/27 01:10:57;;;;;;;6.13;2.15;;;;;;;18.85;69.26;101752.09;5067586;28;20357;-47
2022/08/27 01:13:26;;;;;;;6.70;2.40;;;;;;;18.82;69.52;101754.69;5070072;28;20151;-50
2022/08/27 01:15:52;;;;;;;4.72;2.60;;;;;;;18.78;69.77;101750.28;5071104;28;20032;-52
2022/08/27 01:18:18;;;;;;;6.25;2.40;;;;;;;18.78;69.34;101745.94;5071634;28;20500;-52
2022/08/27 01:21:13;;;;;;;8.43;3.03;;;;;;;18.81;69.56;101746.00;5067128;28;20034;-49
2022/08/27 01:23:51;;;;;;;5.38;2.47;;;;;;;18.81;69.51;101742.47;5069910;28;20040;-53
2022/08/27 01:26:17;;;;;;;5.80;2.40;;;;;;;18.69;70.30;101738.94;5067289;28;20528;-53
2022/08/27 01:28:43;;;;;;;7.32;2.83;;;;;;;18.70;69.83;101735.47;5065203;28;20137;-46
2022/08/27 01:31:11;;;;;;;5.38;2.60;;;;;;;18.63;70.31;101741.47;5070432;28;21286;-53
2022/08/27 01:33:37;;;;;;;6.38;2.53;;;;;;;18.65;70.29;101741.47;5072110;28;20066;-52
2022/08/27 01:36:05;;;;;;;6.47;2.78;;;;;;;18.60;70.40;101737.94;5065968;28;20111;-52
2022/08/27 01:38:31;;;;;;;5.57;2.40;;;;;;;18.61;70.21;101743.16;5065825;28;20114;-49
2022/08/27 01:40:58;;;;;;;7.10;2.50;;;;;;;18.52;71.05;101745.69;5066736;28;20770;-53
2022/08/27 01:43:23;;;;;;;6.30;2.28;;;;;;;18.54;70.67;101737.88;5072897;28;20064;-54
2022/08/27 01:45:50;;;;;;;4.53;2.38;;;;;;;18.51;71.06;101730.94;5071769;28;20116;-50
2022/08/27 01:48:18;;;;;;;6.32;2.80;;;;;;;18.54;70.84;101730.06;5067592;28;20028;-49
2022/08/27 01:50:44;;;;;;;5.95;2.47;;;;;;;18.52;70.93;101729.19;5072770;28;20056;-49
2022/08/27 01:53:18;;;;;;;4.68;2.30;;;;;;;18.46;71.06;101730.88;5069972;28;20108;-53
2022/08/27 01:55:44;;;;;;;5.50;2.40;;;;;;;18.40;71.52;101736.03;5070532;28;20051;-53
2022/08/27 01:58:10;;;;;;;6.40;2.53;;;;;;;18.40;71.33;101736.03;5073725;28;20028;-53
2022/08/27 02:00:39;;;;;;;7.97;2.40;;;;;;;18.44;71.41;101731.72;5070989;28;20036;-54
2022/08/27 02:03:07;;;;;;;7.97;2.80;;;;;;;18.40;71.90;101728.22;5070579;28;20054;-49
2022/08/27 02:05:33;;;;;;;6.85;2.70;;;;;;;18.33;71.78;101726.41;5074152;28;20021;-53
2022/08/27 02:07:59;;;;;;;5.80;2.40;;;;;;;18.41;71.91;101727.34;5069764;28;20419;-52
2022/08/27 02:10:28;;;;;;;10.93;2.63;;;;;;;18.39;72.18;101725.59;5077656;28;20050;-53
2022/08/27 02:12:54;;;;;;;8.50;2.45;;;;;;;18.39;71.90;101723.00;5067099;28;20123;-50
2022/08/27 02:15:20;;;;;;;6.95;2.47;;;;;;;18.39;71.86;101718.66;5069371;28;20584;-54
2022/08/27 02:17:46;;;;;;;6.75;2.78;;;;;;;18.35;71.83;101721.22;5067800;28;20028;-52
2022/08/27 02:20:13;;;;;;;7.43;2.25;;;;;;;18.32;72.26;101729.88;5067745;28;20064;-49
2022/08/27 02:22:40;;;;;;;4.63;2.45;;;;;;;18.32;72.04;101722.06;5064640;28;20036;-53
2022/08/27 02:25:08;;;;;;;7.10;2.47;;;;;;;18.28;72.23;101719.41;5064447;28;20423;-48
2022/08/27 02:27:34;;;;;;;7.68;2.47;;;;;;;18.30;72.06;101718.56;5069010;28;20043;-51
2022/08/27 02:29:59;;;;;;;6.72;2.55;;;;;;;18.26;72.23;101721.13;5072087;28;20032;-53
2022/08/27 02:32:25;;;;;;;5.03;2.20;;;;;;;18.22;72.30;101715.88;5070854;28;20036;-53
2022/08/27 02:34:51;;;;;;;8.13;2.63;;;;;;;18.20;72.16;101711.50;5068474;28;20036;-51
2022/08/27 02:37:16;;;;;;;6.25;2.58;;;;;;;18.21;72.73;101718.50;5066011;28;20523;-53
2022/08/27 02:39:42;;;;;;;5.53;2.45;;;;;;;18.18;72.52;101713.22;5071781;28;20047;-53
2022/08/27 02:42:08;;;;;;;7.40;2.20;;;;;;;18.14;72.66;101716.66;5070774;28;20576;-49
2022/08/27 02:44:34;;;;;;;6.15;2.42;;;;;;;18.13;72.88;101714.91;5070305;28;20058;-52
2022/08/27 02:47:01;;;;;;;6.90;2.72;;;;;;;18.10;73.04;101707.97;5070143;28;20166;-53
2022/08/27 02:49:28;;;;;;;6.18;2.53;;;;;;;18.10;72.72;101709.69;5074830;28;20480;-54
2022/08/27 02:51:55;;;;;;;5.32;3.08;;;;;;;18.07;72.72;101712.25;5071187;28;20031;-52
2022/08/27 02:54:21;;;;;;;7.95;2.72;;;;;;;18.11;73.00;101708.81;5070541;28;20485;-53
2022/08/27 02:56:46;;;;;;;5.63;2.28;;;;;;;18.07;72.81;101713.13;5070396;28;20043;-51
2022/08/27 02:59:12;;;;;;;8.23;2.42;;;;;;;18.04;73.41;101715.69;5072560;28;20043;-53
2022/08/27 03:01:37;;;;;;;5.38;2.35;;;;;;;18.09;72.90;101713.16;5073486;28;20035;-50
2022/08/27 03:04:03;;;;;;;7.28;2.40;;;;;;;18.01;73.29;101713.03;5069245;28;20073;-54
2022/08/27 03:06:30;;;;;;;5.70;2.40;;;;;;;17.98;73.27;101715.63;5072181;28;20029;-52
2022/08/27 03:08:56;;;;;;;6.25;2.53;;;;;;;18.01;73.38;101709.56;5068384;28;20107;-54
2022/08/27 03:11:22;;;;;;;6.63;2.40;;;;;;;17.94;73.52;101717.31;5073039;28;20062;-54
2022/08/27 03:13:47;;;;;;;4.47;2.20;;;;;;;17.88;73.70;101709.44;5069889;28;20117;-52
2022/08/27 03:16:13;;;;;;;6.85;2.42;;;;;;;17.86;73.85;101716.34;5069029;28;20036;-53
2022/08/27 03:18:39;;;;;;;4.85;2.30;;;;;;;17.91;73.53;101712.09;5071497;28;20039;-51
2022/08/27 03:21:06;;;;;;;5.88;2.50;;;;;;;17.90;74.23;101719.88;5069256;28;20416;-51
2022/08/27 03:23:33;;;;;;;7.82;2.80;;;;;;;17.90;73.98;101712.06;5071634;28;20042;-49
2022/08/27 03:26:01;;;;;;;7.78;2.50;;;;;;;17.91;73.97;101717.28;5070801;28;20473;-51
2022/08/27 03:28:31;;;;;;;5.97;2.33;;;;;;;17.91;74.40;101719.03;5069197;28;20025;-53
2022/08/27 03:31:00;;;;;;;6.00;2.70;;;;;;;17.90;74.34;101723.34;5070908;28;20116;-49
2022/08/27 03:33:32;;;;;;;7.15;2.78;;;;;;;17.90;74.15;101715.56;5072274;28;20044;-50
2022/08/27 03:35:57;;;;;;;8.00;2.72;;;;;;;17.88;73.66;101716.38;5069437;28;20035;-47
2022/08/27 03:38:23;;;;;;;6.28;2.63;;;;;;;17.90;74.09;101730.28;5071033;28;20400;-51
2022/08/27 03:40:49;;;;;;;6.18;2.85;;;;;;;17.84;73.90;101712.88;5068537;28;20089;-50
2022/08/27 03:43:17;;;;;;;6.50;2.90;;;;;;;17.83;74.20;101728.44;5068773;28;20143;-51
2022/08/27 03:45:44;;;;;;;5.43;2.50;;;;;;;17.85;74.04;101721.56;5071272;28;20460;-49
2022/08/27 03:48:11;;;;;;;6.78;2.75;;;;;;;17.83;74.04;101729.31;5070331;28;20063;-50
2022/08/27 03:50:38;;;;;;;8.40;2.78;;;;;;;17.79;74.33;101732.75;5070347;28;20047;-51
2022/08/27 03:53:04;;;;;;;5.90;2.60;;;;;;;17.81;74.27;101730.16;5072018;28;21555;-53
2022/08/27 03:55:29;;;;;;;5.40;3.00;;;;;;;17.84;74.33;101728.50;5071001;28;20546;-52
2022/08/27 03:57:55;;;;;;;7.28;3.20;;;;;;;17.80;74.42;101725.81;5066936;28;20044;-47
2022/08/27 04:00:23;;;;;;;6.93;2.53;;;;;;;17.81;74.02;101722.38;5067982;28;21066;-51
2022/08/27 04:02:49;;;;;;;5.68;2.70;;;;;;;17.78;73.97;101731.03;5069152;28;20041;-50
2022/08/27 04:05:15;;;;;;;9.50;2.63;;;;;;;17.78;74.04;101724.94;5069339;28;20039;-53
2022/08/27 04:07:41;;;;;;;5.22;2.83;;;;;;;17.77;74.40;101726.63;5069205;28;20040;-47
2022/08/27 04:10:08;;;;;;;6.90;2.75;;;;;;;17.69;75.00;101726.53;5065373;28;20119;-52
2022/08/27 04:12:34;;;;;;;8.85;3.25;;;;;;;17.68;74.62;101722.19;5067546;28;20542;-50
2022/08/27 04:15:00;;;;;;;5.18;3.00;;;;;;;17.65;74.66;101723.84;5062669;28;20036;-51
2022/08/27 04:17:25;;;;;;;7.90;2.85;;;;;;;17.69;74.52;101728.25;5072139;28;20047;-50
2022/08/27 04:19:51;;;;;;;5.65;2.90;;;;;;;17.62;74.60;101718.63;5065335;28;21032;-52
2022/08/27 04:22:18;;;;;;;6.82;3.22;;;;;;;17.60;74.70;101721.22;5072924;28;20016;-52
2022/08/27 04:24:43;;;;;;;9.18;2.95;;;;;;;17.59;75.30;101721.19;5067664;28;20051;-54
2022/08/27 04:27:10;;;;;;;7.32;3.50;;;;;;;17.58;75.11;101715.09;5068833;28;20020;-53
2022/08/27 04:29:36;;;;;;;6.63;3.72;;;;;;;17.54;75.12;101707.28;5071330;28;22713;-49
2022/08/27 04:32:03;;;;;;;8.07;3.47;;;;;;;17.53;75.25;101721.09;5070110;28;20028;-48
2022/08/27 04:34:29;;;;;;;6.57;3.30;;;;;;;17.53;75.53;101721.97;5069717;28;20487;-52
2022/08/27 04:36:56;;;;;;;10.98;3.45;;;;;;;17.49;75.50;101725.41;5067805;28;20040;-47
2022/08/27 04:39:21;;;;;;;5.53;3.45;;;;;;;17.51;75.57;101728.00;5068314;28;20068;-48
2022/08/27 04:41:51;;;;;;;8.18;3.60;;;;;;;17.57;75.43;101728.09;5065828;28;20059;-47
2022/08/27 04:44:17;;;;;;;7.75;3.22;;;;;;;17.50;75.63;101734.94;5067476;28;20692;-51
2022/08/27 04:46:42;;;;;;;5.65;2.90;;;;;;;17.52;75.74;101734.97;5071085;28;20027;-49
2022/08/27 04:49:10;;;;;;;5.72;3.22;;;;;;;17.58;75.76;101733.31;5071891;28;20032;-48
2022/08/27 04:51:37;;;;;;;7.78;3.40;;;;;;;17.53;75.79;101732.38;5067415;28;20024;-53
2022/08/27 04:54:05;;;;;;;6.15;2.92;;;;;;;17.54;76.07;101734.16;5067769;28;20039;-54
2022/08/27 04:56:31;;;;;;;6.28;3.35;;;;;;;17.52;76.42;101728.03;5068041;28;20036;-47
2022/08/27 04:58:57;;;;;;;10.07;3.60;;;;;;;17.53;75.87;101732.38;5067638;28;20039;-50
2022/08/27 05:01:27;;;;;;;7.60;3.65;;;;;;;17.52;76.30;101735.81;5064571;28;20090;-52
2022/08/27 05:03:54;;;;;;;7.38;3.80;;;;;;;17.53;76.20;101732.38;5070034;28;20040;-52
2022/08/27 05:06:21;;;;;;;7.40;3.47;;;;;;;17.53;76.81;101736.69;5066477;28;20024;-48
2022/08/27 05:08:47;;;;;;;7.10;3.53;;;;;;;17.50;76.89;101737.53;5065760;28;20020;-51
2022/08/27 05:11:14;;;;;;;6.78;3.45;;;;;;;17.48;77.33;101738.41;5071042;28;20032;-50
2022/08/27 05:13:42;;;;;;;6.28;3.33;;;;;;;17.51;76.77;101735.81;5069490;28;20115;-48
2022/08/27 05:16:10;;;;;;;8.90;3.55;;;;;;;17.54;77.27;101744.53;5066363;28;20485;-50
2022/08/27 05:18:36;;;;;;;8.65;3.95;;;;;;;17.53;77.09;101739.31;5066365;28;20553;-49
2022/08/27 05:21:04;;;;;;;6.28;3.72;;;;;;;17.55;77.26;101746.28;5064486;28;20102;-54
2022/08/27 05:23:31;;;;;;;6.45;3.90;;;;;;;17.55;77.34;101737.63;5071257;28;20484;-48
2022/08/27 05:25:57;;;;;;;7.72;3.88;;;;;;;17.59;77.15;101742.84;5068176;28;20024;-52
2022/08/27 05:28:25;;;;;;;9.30;3.80;;;;;;;17.62;77.27;101742.03;5067046;28;20549;-48
2022/08/27 05:30:53;;;;;;;7.63;3.83;;;;;;;17.62;77.45;101747.25;5066499;28;20029;-53
2022/08/27 05:33:24;;;;;;;7.20;4.23;;;;;;;17.67;77.44;101742.97;5072243;28;20523;-52
2022/08/27 05:35:52;;;;;;;8.68;4.43;;;;;;;17.65;77.55;101748.16;5065709;28;20282;-51
2022/08/27 05:38:18;;;;;;;7.10;4.00;;;;;;;17.68;77.34;101745.59;5068680;28;20029;-50
2022/08/27 05:40:46;;;;;;;10.40;3.90;;;;;;;17.71;77.98;101749.94;5065054;28;20392;-52
2022/08/27 05:43:13;;;;;;;10.57;4.35;;;;;;;17.73;77.31;101742.22;5067039;28;20024;-50
2022/08/27 05:45:44;;;;;;;8.95;4.10;;;;;;;17.77;77.77;101749.19;5068577;28;20032;-52
2022/08/27 05:48:10;;;;;;;8.48;4.32;;;;;;;17.77;77.57;101751.78;5069901;28;20032;-52
2022/08/27 05:50:37;;;;;;;8.27;3.90;;;;;;;17.76;77.90;101742.25;5066543;28;20042;-54
2022/08/27 05:53:02;;;;;;;7.47;4.10;;;;;;;17.75;77.88;101743.97;5069098;28;21799;-52
2022/08/27 05:55:28;;;;;;;8.70;4.30;;;;;;;17.78;77.82;101738.81;5070169;28;20032;-51
2022/08/27 05:57:53;;;;;;;8.15;3.72;;;;;;;17.81;77.49;101751.84;5070384;28;20036;-50
2022/08/27 06:03:02;;;;;;;7.80;4.10;;;;;;;17.83;77.59;101752.72;5067389;28;20097;-53
2022/08/27 06:05:28;;;;;;;9.52;4.25;;;;;;;17.82;78.03;101752.72;5064939;28;20039;-49
2022/08/27 06:07:53;;;;;;;9.20;4.10;;;;;;;17.83;78.34;101746.66;5069851;28;20090;-54
2022/08/27 06:10:19;;;;;;;8.68;3.90;;;;;;;17.85;77.82;101755.38;5068357;28;20032;-53
2022/08/27 06:12:44;;;;;;;7.63;3.72;;;;;;;17.81;77.56;101761.38;5069652;28;20043;-49
2022/08/27 06:15:10;;;;;;;7.55;3.67;;;;;;;17.89;77.95;101764.94;5074327;28;20107;-53
2022/08/27 06:17:35;;;;;;;7.15;3.50;;;;;;;17.88;77.56;101756.28;5069938;28;20036;-47
2022/08/27 06:20:01;;;;;;;8.93;3.50;;;;;;;17.89;77.75;101764.94;5069072;28;20033;-53
2022/08/27 06:22:26;;;;;;;10.77;3.90;;;;;;;17.88;77.63;101766.69;5074811;28;20089;-52
2022/08/27 06:24:52;;;;;;;7.35;3.50;;;;;;;17.92;77.32;101760.66;5074521;28;20128;-51
2022/08/27 06:27:19;;;;;;;9.15;3.55;;;;;;;17.91;77.49;101768.47;5072631;28;20074;-48
2022/08/27 06:29:45;;;;;;;8.43;3.58;;;;;;;17.90;77.15;101761.53;5072870;28;20024;-49
2022/08/27 06:32:12;;;;;;;7.22;3.75;;;;;;;17.91;77.51;101758.06;5072185;28;20055;-51
2022/08/27 06:34:38;;;;;;;6.78;3.13;;;;;;;17.92;76.61;101758.06;5068585;28;20028;-51
2022/08/27 06:37:04;;;;;;;7.50;3.40;;;;;;;17.98;77.49;101759.88;5071331;28;20453;-52
2022/08/27 06:39:30;;;;;;;8.65;3.50;;;;;;;17.98;77.16;101761.59;5074086;28;20041;-53
2022/08/27 06:41:56;;;;;;;5.82;3.17;;;;;;;17.98;77.31;101759.88;5071105;28;20579;-52
2022/08/27 06:44:23;;;;;;;7.43;3.47;;;;;;;18.01;77.22;101759.88;5069720;28;20032;-52
2022/08/27 06:46:49;;;;;;;10.35;3.50;;;;;;;18.05;77.24;101763.41;5069380;28;20027;-46
2022/08/27 06:49:15;;;;;;;10.23;3.80;;;;;;;18.06;77.48;101753.00;5076702;28;20752;-53
2022/08/27 06:51:45;;;;;;;6.72;3.00;;;;;;;18.10;77.26;101759.13;5074466;28;20027;-54
2022/08/27 06:54:11;;;;;;;9.38;3.33;;;;;;;18.12;77.11;101760.03;5071308;28;20063;-53
2022/08/27 06:56:38;;;;;;;8.30;2.72;;;;;;;18.11;75.90;101760.88;5069548;28;20040;-49
2022/08/27 06:59:06;;;;;;;7.88;3.10;;;;;;;18.17;76.18;101758.34;5070570;28;20025;-51
2022/08/27 07:01:37;;;;;;;6.95;3.13;;;;;;;18.20;76.56;101761.88;5070048;28;20127;-51
2022/08/27 07:04:06;;;;;;;7.28;3.58;;;;;;;18.22;76.08;101761.88;5076119;28;20020;-48
2022/08/27 07:06:33;;;;;;;10.30;3.30;;;;;;;18.22;75.87;101759.28;5073312;28;20032;-53
2022/08/27 07:08:59;;;;;;;14.30;3.40;;;;;;;18.16;75.48;101751.41;5075162;28;20537;-53
2022/08/27 07:11:30;;;;;;;6.55;3.30;;;;;;;18.24;75.53;101754.94;5071662;28;20020;-47
2022/08/27 07:13:56;;;;;;;5.53;3.03;;;;;;;18.26;76.10;101754.94;5074353;28;20024;-50
2022/08/27 07:16:23;;;;;;;9.25;3.45;;;;;;;18.25;75.76;101754.09;5069704;28;20052;-48
2022/08/27 07:18:50;;;;;;;7.07;3.03;;;;;;;18.31;75.46;101766.31;5072799;28;20094;-48
2022/08/27 07:21:18;;;;;;;5.18;3.15;;;;;;;18.32;75.13;101757.63;5069105;28;20093;-52
2022/08/27 07:23:44;;;;;;;8.82;3.30;;;;;;;18.35;75.15;101771.56;5065883;28;20025;-50
2022/08/27 07:26:12;;;;;;;7.40;3.33;;;;;;;18.40;74.81;101766.41;5067073;28;20031;-53
2022/08/27 07:28:41;;;;;;;7.10;3.38;;;;;;;18.46;73.97;101769.06;5070089;28;20077;-49
2022/08/27 07:31:09;;;;;;;7.72;3.63;;;;;;;18.46;74.33;101764.75;5065881;28;20047;-50
2022/08/27 07:33:36;;;;;;;6.20;3.60;;;;;;;18.55;73.79;101776.97;5071646;28;20028;-49
2022/08/27 07:36:02;;;;;;;9.45;3.80;;;;;;;18.60;73.82;101774.41;5071836;28;20086;-50
2022/08/27 07:38:27;;;;;;;7.95;3.80;;;;;;;18.61;72.96;101782.22;5072683;28;20140;-52
2022/08/27 07:40:53;;;;;;;8.70;4.30;;;;;;;18.64;73.19;101779.66;5075734;28;20481;-50
2022/08/27 07:46:03;;;;;;;8.50;4.18;;;;;;;18.86;73.21;101772.06;5070652;28;20071;-51
2022/08/27 07:48:29;;;;;;;11.00;4.40;;;;;;;18.94;72.31;101779.09;5070490;28;20071;-50
2022/08/27 07:50:55;;;;;;;11.23;4.25;;;;;;;19.05;72.90;101776.59;5070406;28;20028;-50
2022/08/27 07:53:20;;;;;;;10.15;4.20;;;;;;;19.21;71.64;101775.81;5071808;28;20032;-49
2022/08/27 07:55:46;;;;;;;11.60;4.28;;;;;;;19.32;71.55;101782.84;5071455;28;20060;-50
2022/08/27 07:58:13;;;;;;;8.38;4.22;;;;;;;19.46;70.98;101773.38;5071364;28;20028;-50
2022/08/27 08:00:43;;;;;;;7.85;3.97;;;;;;;19.62;70.49;101775.25;5075461;28;21678;-52
2022/08/27 08:03:09;;;;;;;8.00;3.60;;;;;;;19.71;68.29;101777.88;5067753;28;20103;-52
2022/08/27 08:05:35;;;;;;;8.48;2.85;;;;;;;19.85;67.40;101784.94;5071166;28;20097;-51
2022/08/27 08:08:00;;;;;;;5.60;2.40;;;;;;;19.95;66.55;101781.47;5069069;28;20028;-52
2022/08/27 08:10:26;;;;;;;7.97;3.17;;;;;;;20.10;67.95;101786.75;5066383;28;20024;-46
2022/08/27 08:12:51;;;;;;;5.03;2.40;;;;;;;20.12;64.79;101778.94;5072294;28;20062;-48
2022/08/27 08:15:18;;;;;;;5.65;2.20;;;;;;;20.11;64.54;101782.41;5070257;28;20052;-51
2022/08/27 08:17:44;;;;;;;6.03;2.30;;;;;;;20.16;64.53;101776.34;5069686;28;20024;-47
2022/08/27 08:20:11;;;;;;;6.43;2.20;;;;;;;20.17;63.84;101778.06;5069558;28;20024;-52
2022/08/27 08:22:37;;;;;;;6.20;2.05;;;;;;;20.18;62.88;101776.34;5068173;28;20038;-51
2022/08/27 08:25:03;;;;;;;6.50;2.13;;;;;;;20.24;62.97;101779.84;5069912;28;20036;-52
2022/08/27 08:27:31;;;;;;;5.13;1.98;;;;;;;20.31;61.91;101776.38;5071117;28;20153;-51
2022/08/27 08:29:59;;;;;;;4.65;2.00;;;;;;;20.44;60.75;101779.00;5067779;28;20032;-48
2022/08/27 08:32:25;;;;;;;4.40;1.70;;;;;;;20.51;60.03;101780.81;5071198;28;20087;-43
2022/08/27 08:34:50;;;;;;;5.85;1.95;;;;;;;20.62;60.32;101777.31;5073340;28;20622;-51
2022/08/27 08:37:16;;;;;;;6.85;2.10;;;;;;;20.69;60.75;101786.06;5076305;28;20111;-54
2022/08/27 08:39:42;;;;;;;4.32;1.70;;;;;;;20.84;59.77;101791.28;5073169;28;20141;-53
2022/08/27 08:42:30;;;;;;;3.78;1.50;;;;;;;20.91;59.03;101778.22;5074132;28;20043;-46
2022/08/27 08:45:00;;;;;;;6.30;1.83;;;;;;;20.95;58.87;101788.69;5076112;28;20361;-54
2022/08/27 08:47:30;;;;;;;3.78;1.73;;;;;;;20.99;57.99;101793.06;5071831;28;20380;-53
2022/08/27 08:50:10;;;;;;;4.10;1.83;;;;;;;21.02;57.76;101790.41;5066742;28;20036;-54
2022/08/27 08:52:57;;;;;;;13.90;3.10;;;;;;;21.06;59.28;101794.78;5071298;28;20036;-53
2022/08/27 08:55:38;;;;;;;6.72;1.73;;;;;;;21.07;58.56;101790.41;5075665;28;20034;-50
2022/08/27 08:58:26;;;;;;;6.05;1.88;;;;;;;21.05;58.68;101787.81;5068714;28;20151;-53
2022/08/27 09:00:57;;;;;;;7.35;1.85;;;;;;;21.09;57.42;101788.66;5070160;28;20388;-53
2022/08/27 09:03:22;;;;;;;4.18;1.67;;;;;;;21.05;57.75;101795.66;5073127;28;20034;-46
2022/08/27 09:05:58;;;;;;;7.55;1.77;;;;;;;21.05;58.20;101802.59;5067590;28;20041;-47
2022/08/27 09:08:37;;;;;;;6.03;1.88;;;;;;;21.05;57.54;101803.50;5064755;28;20059;-52
2022/08/27 09:11:08;;;;;;;7.63;1.95;;;;;;;21.00;56.20;101799.16;5056883;28;20047;-49
2022/08/27 09:13:41;;;;;;;17.48;2.10;;;;;;;21.01;57.73;101796.53;5068812;28;20028;-54
2022/08/27 09:16:07;;;;;;;9.20;2.03;;;;;;;21.02;57.90;101803.50;5065088;28;20067;-48
2022/08/27 09:18:36;;;;;;;3.17;1.58;;;;;;;21.04;57.86;101799.13;5064124;28;20649;-51
2022/08/27 09:21:24;;;;;;;7.72;2.00;;;;;;;21.12;57.90;101804.38;5067839;28;20093;-54
2022/08/27 09:23:56;;;;;;;6.07;1.73;;;;;;;21.03;56.99;101805.22;5069402;28;20526;-53
2022/08/27 09:26:25;;;;;;;4.55;1.55;;;;;;;21.01;57.06;101809.59;5067709;28;20062;-53
2022/08/27 09:31:48;;;;;;;6.63;1.65;;;;;;;21.27;55.98;101812.19;5064082;28;20048;-51
2022/08/27 09:34:14;;;;;;;6.63;2.03;;;;;;;21.34;54.93;101806.09;5071614;28;20027;-49
2022/08/27 09:36:54;;;;;;;3.40;1.50;;;;;;;21.45;55.35;101806.09;5071478;28;20642;-47
2022/08/27 09:39:28;;;;;;;8.45;2.50;;;;;;;21.50;55.61;101801.72;5071297;28;20100;-50
2022/08/27 09:41:54;;;;;;;4.78;1.45;;;;;;;21.57;54.42;101813.06;5069888;28;20151;-52
2022/08/27 09:44:21;;;;;;;5.75;2.05;;;;;;;21.61;53.83;101806.94;5070266;28;20059;-50
2022/08/27 09:46:54;;;;;;;4.43;1.80;;;;;;;21.69;54.51;101799.94;5073074;28;20491;-52
2022/08/27 09:49:20;;;;;;;4.57;1.60;;;;;;;21.76;54.74;101798.16;5071824;28;20028;-51
2022/08/27 09:51:46;;;;;;;4.28;1.70;;;;;;;21.79;54.71;101788.56;5069582;28;20028;-48
2022/08/27 09:54:23;;;;;;;4.07;1.60;;;;;;;21.80;54.80;101792.91;5075142;28;20431;-48
2022/08/27 09:56:49;;;;;;;8.25;1.98;;;;;;;21.72;54.73;101802.56;5068084;28;20090;-48
2022/08/27 09:59:26;;;;;;;3.75;1.70;;;;;;;21.73;54.67;101795.56;5075703;28;20093;-53
2022/08/27 10:02:17;;;;;;;5.18;1.70;;;;;;;21.73;53.82;101798.19;5072429;28;20107;-52
2022/08/27 10:04:51;;;;;;;4.43;1.77;;;;;;;21.73;53.50;101799.06;5076985;28;20380;-52
2022/08/27 10:07:38;;;;;;;7.07;1.65;;;;;;;21.72;53.40;101807.78;5070983;28;20020;-49
2022/08/27 10:10:29;;;;;;;4.38;1.58;;;;;;;21.74;53.72;101808.66;5074926;28;20031;-54
2022/08/27 10:13:00;;;;;;;6.13;1.75;;;;;;;21.61;53.74;101807.81;5034851;28;20114;-49
2022/08/27 10:15:33;;;;;;;4.65;1.58;;;;;;;21.63;53.32;101803.44;5071768;28;20025;-48
2022/08/27 10:18:08;;;;;;;3.90;1.60;;;;;;;21.58;53.77;101805.19;5069939;28;20114;-51
2022/08/27 10:21:00;;;;;;;4.53;1.42;;;;;;;21.62;53.92;101795.59;5068298;28;20119;-46
2022/08/27 10:23:41;;;;;;;4.40;1.50;;;;;;;21.60;53.78;101799.97;5068716;28;20624;-48
2022/08/27 10:26:15;;;;;;;9.35;1.50;;;;;;;21.57;54.54;101803.44;5068660;28;20407;-44
2022/08/27 10:29:01;;;;;;;5.35;1.52;;;;;;;21.62;53.81;101801.69;5071243;28;20056;-44
2022/08/27 10:32:12;;;;;;;8.25;1.55;;;;;;;21.68;53.92;101800.81;5067755;28;20416;-45
2022/08/27 10:34:37;;;;;;;8.90;1.52;;;;;;;21.66;53.83;101786.88;5057751;28;20515;-44
2022/08/27 10:37:18;;;;;;;19.55;2.30;;;;;;;21.73;54.18;101799.06;5071017;28;20036;-43
2022/08/27 10:40:14;;;;;;;6.30;1.25;;;;;;;21.71;53.77;101790.31;5065536;28;20043;-50
2022/08/27 10:43:01;;;;;;;6.07;1.40;;;;;;;21.77;54.28;101794.66;5069674;28;20441;-46
2022/08/27 10:46:03;;;;;;;3.33;1.40;;;;;;;21.80;54.18;101790.31;5069298;28;20028;-49
2022/08/27 10:48:47;;;;;;;3.50;1.25;;;;;;;21.83;53.93;101789.41;5062518;28;20090;-48
2022/08/27 10:51:21;;;;;;;3.13;1.10;;;;;;;22.04;53.01;101785.84;5069302;28;20039;-48
2022/08/27 10:54:14;;;;;;;2.95;1.23;;;;;;;22.24;53.10;101776.16;5064939;28;20365;-48
2022/08/27 10:57:14;;;;;;;7.70;1.70;;;;;;;22.37;51.64;101777.81;5064920;28;20497;-47
2022/08/27 10:59:50;;;;;;;4.03;1.23;;;;;;;22.28;51.31;101785.75;5034457;28;20625;-45
2022/08/27 11:02:22;;;;;;;2.28;1.20;;;;;;;22.16;51.84;101777.97;5067112;28;20063;-47
2022/08/27 11:04:55;;;;;;;5.78;1.20;;;;;;;22.06;52.07;101784.94;5068011;28;20028;-46
2022/08/27 11:07:28;;;;;;;3.90;1.25;;;;;;;22.00;51.42;101787.59;5068336;28;20024;-46
2022/08/27 11:10:04;;;;;;;5.75;1.25;;;;;;;21.94;52.37;101787.63;5067716;28;20043;-47
2022/08/27 11:12:44;;;;;;;3.97;1.50;;;;;;;21.97;52.29;101784.13;5071405;28;20021;-45
2022/08/27 11:15:18;;;;;;;6.40;1.15;;;;;;;21.98;52.84;101780.63;5068513;28;20089;-46
2022/08/27 11:17:59;;;;;;;5.38;1.30;;;;;;;21.95;52.17;101786.75;5068771;28;20036;-46
2022/08/27 11:20:30;;;;;;;3.75;1.48;;;;;;;21.92;51.72;101779.78;5071235;28;20501;-46
2022/08/27 11:23:37;;;;;;;3.70;1.20;;;;;;;21.93;52.12;101788.50;5073613;28;20625;-48
2022/08/27 11:26:04;;;;;;;4.55;1.42;;;;;;;21.93;51.47;101783.25;5056986;28;20048;-48
2022/08/27 11:28:40;;;;;;;5.93;1.92;;;;;;;21.92;50.99;101771.91;5067462;28;20506;-46
2022/08/27 11:31:26;;;;;;;2.97;1.23;;;;;;;22.06;52.05;101776.22;5064842;28;20055;-45
2022/08/27 11:34:13;;;;;;;6.53;1.30;;;;;;;22.18;51.25;101770.94;5064069;28;20533;-46
2022/08/27 11:36:39;;;;;;;4.25;1.00;;;;;;;22.16;49.92;101772.72;5066900;28;20115;-46
2022/08/27 11:39:22;;;;;;;2.97;1.10;;;;;;;22.19;50.46;101775.31;5068492;28;20119;-49
2022/08/27 11:41:54;;;;;;;3.08;1.30;;;;;;;22.20;50.61;101763.94;5068780;28;20089;-48
2022/08/27 11:44:23;;;;;;;6.53;1.27;;;;;;;22.31;50.81;101771.75;5066963;28;20043;-46